createdAt,value
2017-11-09T00:00:22.735Z,98438.47
2017-11-09T00:02:51.893Z,98441.69
2017-11-09T00:05:26.341Z,98445.17
2017-11-09T00:07:54.624Z,98440.31
2017-11-09T00:10:23.977Z,98449.04
2017-11-09T00:12:52.280Z,98442.47
2017-11-09T00:15:20.552Z,98439.26
2017-11-09T00:17:49.610Z,98432.92
2017-11-09T00:20:17.893Z,98439.16
2017-11-09T00:22:46.206Z,98445.13
2017-11-09T00:25:14.503Z,98440.96
2017-11-09T00:27:43.769Z,98442.66
2017-11-09T00:30:12.066Z,98448.95
2017-11-09T00:32:40.350Z,98447.46
2017-11-09T00:35:08.642Z,98451.78
2017-11-09T00:37:36.927Z,98455.30
2017-11-09T00:40:05.211Z,98453.59
2017-11-09T00:42:33.498Z,98458.73
2017-11-09T00:45:02.679Z,98457.94
2017-11-09T00:47:30.978Z,98454.09
2017-11-09T00:49:59.501Z,98453.24
2017-11-09T00:52:27.817Z,98458.69
2017-11-09T00:54:56.100Z,98451.27
2017-11-09T00:57:24.377Z,98452.19
2017-11-09T00:59:52.662Z,98450.84
2017-11-09T01:02:20.985Z,98449.85
2017-11-09T01:04:49.274Z,98453.44
2017-11-09T01:07:17.570Z,98448.03
2017-11-09T01:09:45.857Z,98452.44
2017-11-09T01:12:14.157Z,98450.88
2017-11-09T01:14:43.225Z,98448.89
2017-11-09T01:17:12.397Z,98450.35
2017-11-09T01:19:41.446Z,98446.20
2017-11-09T01:22:10.525Z,98450.35
2017-11-09T01:24:38.827Z,98445.24
2017-11-09T01:27:07.886Z,98444.28
2017-11-09T01:29:36.150Z,98442.41
2017-11-09T01:32:04.432Z,98447.19
2017-11-09T01:34:32.716Z,98443.43
2017-11-09T01:37:01.010Z,98442.34
2017-11-09T01:39:30.074Z,98436.94
2017-11-09T01:41:58.357Z,98430.94
2017-11-09T01:44:27.416Z,98435.11
2017-11-09T01:46:55.715Z,98439.44
2017-11-09T01:49:24.021Z,98441.66
2017-11-09T01:51:52.316Z,98439.85
2017-11-09T01:54:20.618Z,98438.73
2017-11-09T01:56:48.910Z,98444.80
2017-11-09T01:59:17.206Z,98445.77
2017-11-09T02:01:45.489Z,98455.62
2017-11-09T02:04:13.790Z,98455.34
2017-11-09T02:06:42.841Z,98455.32
2017-11-09T02:09:11.143Z,98453.61
2017-11-09T02:11:39.460Z,98451.03
2017-11-09T02:14:07.752Z,98455.70
2017-11-09T02:16:36.042Z,98454.84
2017-11-09T02:19:04.354Z,98454.73
2017-11-09T02:21:32.656Z,98451.86
2017-11-09T02:24:00.976Z,98444.27
2017-11-09T02:26:29.456Z,98452.86
2017-11-09T02:28:57.780Z,98456.70
2017-11-09T02:31:26.102Z,98457.59
2017-11-09T02:33:54.388Z,98469.55
2017-11-09T02:36:23.467Z,98464.01
2017-11-09T02:38:51.745Z,98467.75
2017-11-09T02:41:20.029Z,98475.83
2017-11-09T02:43:48.313Z,98473.30
2017-11-09T02:46:17.383Z,98490.41
2017-11-09T02:48:45.677Z,98477.20
2017-11-09T02:51:13.980Z,98484.45
2017-11-09T02:53:42.745Z,98487.38
2017-11-09T02:56:11.034Z,98492.55
2017-11-09T02:58:39.326Z,98484.83
2017-11-09T03:01:07.870Z,98479.16
2017-11-09T03:03:36.158Z,98483.70
2017-11-09T03:06:04.445Z,98484.64
2017-11-09T03:08:32.738Z,98490.23
2017-11-09T03:11:01.041Z,98493.19
2017-11-09T03:13:29.330Z,98488.88
2017-11-09T03:15:57.625Z,98490.61
2017-11-09T03:18:25.937Z,98494.89
2017-11-09T03:20:54.228Z,98499.13
2017-11-09T03:23:22.561Z,98494.09
2017-11-09T03:25:50.842Z,98498.27
2017-11-09T03:28:19.970Z,98496.62
2017-11-09T03:30:48.259Z,98500.92
2017-11-09T03:33:17.308Z,98503.53
2017-11-09T03:35:45.590Z,98502.98
2017-11-09T03:38:13.887Z,98504.20
2017-11-09T03:40:42.170Z,98502.59
2017-11-09T03:43:10.461Z,98503.44
2017-11-09T03:45:39.514Z,98507.80
2017-11-09T03:48:07.804Z,98499.49
2017-11-09T03:50:36.093Z,98506.18
2017-11-09T03:53:04.385Z,98501.92
2017-11-09T03:55:32.685Z,98505.62
2017-11-09T03:58:00.977Z,98500.55
2017-11-09T04:00:29.290Z,98502.95
2017-11-09T04:02:57.599Z,98502.10
2017-11-09T04:05:25.889Z,98505.78
2017-11-09T04:07:54.174Z,98506.53
2017-11-09T04:10:22.525Z,98504.40
2017-11-09T04:12:50.806Z,98504.48
2017-11-09T04:15:19.144Z,98507.66
2017-11-09T04:17:47.425Z,98503.42
2017-11-09T04:20:15.719Z,98498.40
2017-11-09T04:22:44.009Z,98504.83
2017-11-09T04:25:12.921Z,98499.94
2017-11-09T04:27:41.201Z,98506.33
2017-11-09T04:30:09.486Z,98507.78
2017-11-09T04:32:38.753Z,98502.56
2017-11-09T04:35:07.812Z,98503.52
2017-11-09T04:37:36.105Z,98499.63
2017-11-09T04:40:04.385Z,98495.36
2017-11-09T04:42:33.099Z,98500.05
2017-11-09T04:45:02.136Z,98503.13
2017-11-09T04:47:30.421Z,98507.21
2017-11-09T04:49:58.718Z,98511.47
2017-11-09T04:52:27.005Z,98508.14
2017-11-09T04:54:55.293Z,98508.14
2017-11-09T04:57:24.346Z,98516.62
2017-11-09T04:59:52.626Z,98513.56
2017-11-09T05:02:20.925Z,98520.30
2017-11-09T05:04:50.065Z,98527.84
2017-11-09T05:07:18.354Z,98523.77
2017-11-09T05:09:46.641Z,98521.59
2017-11-09T05:12:14.938Z,98519.04
2017-11-09T05:14:43.247Z,98524.34
2017-11-09T05:17:12.295Z,98521.72
2017-11-09T05:19:40.587Z,98521.41
2017-11-09T05:22:08.884Z,98526.52
2017-11-09T05:24:37.185Z,98524.24
2017-11-09T05:27:05.472Z,98527.50
2017-11-09T05:29:33.766Z,98535.41
2017-11-09T05:32:02.049Z,98528.91
2017-11-09T05:34:30.347Z,98521.06
2017-11-09T05:36:58.648Z,98519.59
2017-11-09T05:39:27.744Z,98526.48
2017-11-09T05:41:56.794Z,98528.72
2017-11-09T05:44:25.085Z,98525.31
2017-11-09T05:46:53.373Z,98524.84
2017-11-09T05:49:21.663Z,98521.09
2017-11-09T05:51:49.956Z,98524.56
2017-11-09T05:54:19.875Z,98526.59
2017-11-09T05:56:49.084Z,98524.10
2017-11-09T05:59:17.369Z,98527.55
2017-11-09T06:01:45.656Z,98517.45
2017-11-09T06:04:13.950Z,98526.79
2017-11-09T06:06:42.263Z,98520.94
2017-11-09T06:09:12.026Z,98519.18
2017-11-09T06:11:40.314Z,98523.92
2017-11-09T06:14:09.159Z,98520.09
2017-11-09T06:16:38.169Z,98522.73
2017-11-09T06:19:06.454Z,98519.30
2017-11-09T06:21:34.724Z,98525.34
2017-11-09T06:24:03.005Z,98523.27
2017-11-09T06:26:31.279Z,98518.16
2017-11-09T06:28:59.565Z,98521.11
2017-11-09T06:31:27.849Z,98522.81
2017-11-09T06:33:56.121Z,98524.06
2017-11-09T06:36:24.396Z,98525.34
2017-11-09T06:38:52.680Z,98523.95
2017-11-09T06:41:20.960Z,98527.34
2017-11-09T06:43:49.243Z,98532.39
2017-11-09T06:46:17.529Z,98533.21
2017-11-09T06:48:46.582Z,98533.97
2017-11-09T06:51:14.866Z,98538.29
2017-11-09T06:53:43.169Z,98543.01
2017-11-09T06:56:11.463Z,98541.20
2017-11-09T06:58:40.515Z,98537.37
2017-11-09T07:01:08.841Z,98539.92
2017-11-09T07:03:37.140Z,98540.32
2017-11-09T07:06:05.430Z,98548.31
2017-11-09T07:08:33.721Z,98552.42
2017-11-09T07:11:02.013Z,98560.11
2017-11-09T07:13:30.285Z,98557.94
2017-11-09T07:16:00.194Z,98557.28
2017-11-09T07:18:28.472Z,98555.76
2017-11-09T07:20:56.757Z,98566.30
2017-11-09T07:23:25.157Z,98567.49
2017-11-09T07:25:53.482Z,98571.36
2017-11-09T07:28:21.771Z,98573.30
2017-11-09T07:30:50.056Z,98577.13
2017-11-09T07:33:18.398Z,98574.47
2017-11-09T07:35:46.682Z,98572.45
2017-11-09T07:38:14.965Z,98577.78
2017-11-09T07:40:44.237Z,98576.23
2017-11-09T07:43:12.521Z,98576.37
2017-11-09T07:45:40.804Z,98573.78
2017-11-09T07:48:09.093Z,98578.84
2017-11-09T07:50:37.386Z,98587.70
2017-11-09T07:53:05.665Z,98575.44
2017-11-09T07:55:33.954Z,98577.97
2017-11-09T07:58:02.247Z,98576.86
2017-11-09T08:00:31.315Z,98582.39
2017-11-09T08:02:59.599Z,98586.67
2017-11-09T08:05:27.893Z,98587.80
2017-11-09T08:07:56.189Z,98589.80
2017-11-09T08:10:25.236Z,98592.28
2017-11-09T08:12:53.508Z,98602.44
2017-11-09T08:15:21.799Z,98607.55
2017-11-09T08:17:50.103Z,98598.87
2017-11-09T08:20:18.390Z,98593.91
2017-11-09T08:22:46.680Z,98607.70
2017-11-09T08:25:19.986Z,98605.53
2017-11-09T08:27:50.646Z,98612.19
2017-11-09T08:30:19.426Z,98615.17
2017-11-09T08:32:51.864Z,98623.64
2017-11-09T08:35:20.153Z,98624.38
2017-11-09T08:37:48.435Z,98620.70
2017-11-09T08:40:17.421Z,98622.33
2017-11-09T08:42:45.719Z,98616.91
2017-11-09T08:45:14.002Z,98615.75
2017-11-09T08:47:42.287Z,98618.49
2017-11-09T08:50:10.607Z,98614.34
2017-11-09T08:52:38.982Z,98611.51
2017-11-09T08:55:08.036Z,98616.29
2017-11-09T08:57:37.224Z,98612.91
2017-11-09T09:00:05.510Z,98610.43
2017-11-09T09:02:33.789Z,98612.39
2017-11-09T09:05:02.076Z,98612.59
2017-11-09T09:07:30.349Z,98615.36
2017-11-09T09:09:58.638Z,98611.06
2017-11-09T09:12:27.703Z,98614.86
2017-11-09T09:14:56.033Z,98614.16
2017-11-09T09:17:25.102Z,98624.76
2017-11-09T09:19:53.386Z,98615.47
2017-11-09T09:25:27.587Z,98613.87
2017-11-09T09:27:58.165Z,98622.08
2017-11-09T09:30:29.397Z,98623.48
2017-11-09T09:33:05.151Z,98623.45
2017-11-09T09:35:42.837Z,98623.52
2017-11-09T09:38:18.134Z,98627.41
2017-11-09T09:40:47.073Z,98627.00
2017-11-09T09:43:15.554Z,98632.44
2017-11-09T09:45:43.853Z,98631.52
2017-11-09T09:48:12.140Z,98641.08
2017-11-09T09:50:40.432Z,98639.70
2017-11-09T09:53:08.717Z,98643.59
2017-11-09T09:55:37.029Z,98648.00
2017-11-09T09:58:06.093Z,98646.54
2017-11-09T10:00:34.385Z,98643.38
2017-11-09T10:03:02.697Z,98642.66
2017-11-09T10:05:30.993Z,98644.30
2017-11-09T10:07:59.282Z,98638.34
2017-11-09T10:10:27.566Z,98641.25
2017-11-09T10:12:55.862Z,98637.16
2017-11-09T10:15:24.170Z,98637.64
2017-11-09T10:17:52.461Z,98637.16
2017-11-09T10:20:20.761Z,98638.92
2017-11-09T10:22:49.062Z,98637.67
2017-11-09T10:25:17.365Z,98634.86
2017-11-09T10:27:46.421Z,98633.22
2017-11-09T10:30:14.706Z,98631.52
2017-11-09T10:32:42.993Z,98631.44
2017-11-09T10:35:12.060Z,98625.06
2017-11-09T10:37:40.397Z,98625.16
2017-11-09T10:40:08.687Z,98620.08
2017-11-09T10:42:36.981Z,98615.41
2017-11-09T10:45:05.286Z,98612.48
2017-11-09T10:47:33.615Z,98614.13
2017-11-09T10:50:02.698Z,98611.70
2017-11-09T10:52:31.035Z,98608.19
2017-11-09T10:54:59.337Z,98603.11
2017-11-09T10:57:27.637Z,98603.08
2017-11-09T10:59:55.954Z,98597.20
2017-11-09T11:02:24.232Z,98596.38
2017-11-09T11:04:52.521Z,98601.55
2017-11-09T11:07:20.809Z,98600.33
2017-11-09T11:09:49.122Z,98595.19
2017-11-09T11:12:17.426Z,98595.65
2017-11-09T11:14:45.740Z,98592.70
2017-11-09T11:17:14.045Z,98592.71
2017-11-09T11:19:42.578Z,98591.42
2017-11-09T11:22:10.883Z,98591.44
2017-11-09T11:24:39.194Z,98589.72
2017-11-09T11:27:07.497Z,98585.89
2017-11-09T11:29:35.825Z,98586.73
2017-11-09T11:32:04.126Z,98586.32
2017-11-09T11:34:32.422Z,98579.90
2017-11-09T11:37:00.747Z,98578.19
2017-11-09T11:39:29.049Z,98575.45
2017-11-09T11:41:57.337Z,98578.23
2017-11-09T11:44:25.649Z,98576.83
2017-11-09T11:46:53.952Z,98575.73
2017-11-09T11:49:22.742Z,98578.41
2017-11-09T11:51:51.037Z,98573.57
2017-11-09T11:54:20.581Z,98581.95
2017-11-09T11:56:48.876Z,98576.95
2017-11-09T11:59:17.177Z,98578.52
2017-11-09T12:01:45.465Z,98581.75
2017-11-09T12:04:14.526Z,98578.33
2017-11-09T12:06:43.394Z,98576.39
2017-11-09T12:09:11.712Z,98575.86
2017-11-09T12:11:41.577Z,98581.19
2017-11-09T12:14:09.879Z,98576.03
2017-11-09T12:16:38.195Z,98578.20
2017-11-09T12:19:07.278Z,98580.35
2017-11-09T12:21:35.597Z,98576.06
2017-11-09T12:24:03.923Z,98572.19
2017-11-09T12:26:32.251Z,98576.01
2017-11-09T12:29:02.073Z,98574.23
2017-11-09T12:31:30.382Z,98569.14
2017-11-09T12:33:58.697Z,98569.95
2017-11-09T12:36:27.005Z,98566.11
2017-11-09T12:38:55.406Z,98569.44
2017-11-09T12:41:24.502Z,98564.34
2017-11-09T12:43:53.607Z,98562.67
2017-11-09T12:46:21.900Z,98563.48
2017-11-09T12:48:50.195Z,98565.20
2017-11-09T12:51:20.339Z,98563.10
2017-11-09T12:53:48.647Z,98562.63
2017-11-09T12:56:16.915Z,98561.42
2017-11-09T12:58:45.195Z,98563.64
2017-11-09T13:01:13.474Z,98552.94
2017-11-09T13:03:41.845Z,98551.66
2017-11-09T13:06:10.153Z,98550.39
2017-11-09T13:08:39.249Z,98554.69
2017-11-09T13:11:07.555Z,98555.10
2017-11-09T13:13:35.858Z,98549.88
2017-11-09T13:16:04.153Z,98548.16
2017-11-09T13:18:32.451Z,98551.86
2017-11-09T13:21:00.750Z,98542.91
2017-11-09T13:23:29.062Z,98545.87
2017-11-09T13:25:57.368Z,98559.55
2017-11-09T13:28:25.685Z,98554.39
2017-11-09T13:30:53.990Z,98552.70
2017-11-09T13:33:22.279Z,98550.98
2017-11-09T13:35:50.583Z,98547.15
2017-11-09T13:38:19.845Z,98542.85
2017-11-09T13:40:48.702Z,98545.89
2017-11-09T13:43:17.001Z,98539.91
2017-11-09T13:45:45.305Z,98543.38
2017-11-09T13:48:13.593Z,98548.82
2017-11-09T13:50:41.934Z,98551.81
2017-11-09T13:53:10.246Z,98548.84
2017-11-09T13:55:38.522Z,98556.84
2017-11-09T13:58:06.811Z,98560.84
2017-11-09T14:00:35.399Z,98562.44
2017-11-09T14:03:03.950Z,98559.89
2017-11-09T14:05:32.517Z,98560.45
2017-11-09T14:08:01.029Z,98568.56
2017-11-09T14:10:30.261Z,98561.78
2017-11-09T14:12:59.379Z,98565.16
2017-11-09T14:15:27.697Z,98568.61
2017-11-09T14:17:56.160Z,98568.16
2017-11-09T14:20:24.463Z,98564.38
2017-11-09T14:22:52.763Z,98577.63
2017-11-09T14:25:21.072Z,98576.33
2017-11-09T14:27:49.365Z,98584.83
2017-11-09T14:30:17.998Z,98588.71
2017-11-09T14:32:47.298Z,98581.34
2017-11-09T14:35:16.371Z,98581.83
2017-11-09T14:37:45.228Z,98588.67
2017-11-09T14:40:13.533Z,98588.25
2017-11-09T14:42:41.834Z,98582.67
2017-11-09T14:45:10.141Z,98591.20
2017-11-09T14:47:38.442Z,98583.42
2017-11-09T14:50:06.754Z,98592.42
2017-11-09T14:52:35.036Z,98602.97
2017-11-09T14:55:03.973Z,98594.52
2017-11-09T14:57:32.325Z,98595.38
2017-11-09T15:00:01.446Z,98599.70
2017-11-09T15:02:29.733Z,98603.59
2017-11-09T15:04:58.059Z,98606.08
2017-11-09T15:07:27.118Z,98612.04
2017-11-09T15:09:55.417Z,98617.07
2017-11-09T15:12:23.710Z,98620.82
2017-11-09T15:14:52.001Z,98628.48
2017-11-09T15:17:20.289Z,98625.44
2017-11-09T15:19:48.574Z,98621.06
2017-11-09T15:22:16.862Z,98625.64
2017-11-09T15:24:47.076Z,98617.39
2017-11-09T15:27:15.366Z,98608.50
2017-11-09T15:29:43.662Z,98613.19
2017-11-09T15:32:12.556Z,98606.67
2017-11-09T15:34:40.850Z,98610.48
2017-11-09T15:37:09.155Z,98611.66
2017-11-09T15:39:37.449Z,98609.69
2017-11-09T15:42:05.885Z,98606.69
2017-11-09T15:44:35.006Z,98606.30
2017-11-09T15:47:03.341Z,98604.91
2017-11-09T15:49:31.625Z,98601.53
2017-11-09T15:51:59.908Z,98601.00
2017-11-09T15:54:28.197Z,98590.36
2017-11-09T15:56:56.502Z,98598.81
2017-11-09T15:59:24.808Z,98603.78
2017-11-09T16:01:53.093Z,98596.92
2017-11-09T16:04:21.373Z,98601.19
2017-11-09T16:06:49.661Z,98607.94
2017-11-09T16:09:18.720Z,98612.98
2017-11-09T16:11:47.011Z,98606.63
2017-11-09T16:14:15.305Z,98600.20
2017-11-09T16:16:43.598Z,98595.16
2017-11-09T16:19:15.453Z,98594.27
2017-11-09T16:21:43.754Z,98592.47
2017-11-09T16:24:12.039Z,98592.11
2017-11-09T16:26:40.734Z,98592.43
2017-11-09T16:29:09.024Z,98586.04
2017-11-09T16:31:38.234Z,98573.13
2017-11-09T16:34:06.545Z,98574.28
2017-11-09T16:36:34.845Z,98567.13
2017-11-09T16:39:03.127Z,98564.20
2017-11-09T16:41:31.410Z,98563.85
2017-11-09T16:43:59.734Z,98559.09
2017-11-09T16:46:28.016Z,98566.41
2017-11-09T16:48:57.073Z,98568.01
2017-11-09T16:51:25.375Z,98564.21
2017-11-09T16:53:54.459Z,98567.52
2017-11-09T16:56:25.529Z,98576.80
2017-11-09T16:58:54.577Z,98569.38
2017-11-09T17:01:22.868Z,98571.45
2017-11-09T17:03:51.170Z,98580.66
2017-11-09T17:06:19.960Z,98584.55
2017-11-09T17:08:48.252Z,98578.44
2017-11-09T17:11:19.081Z,98581.95
2017-11-09T17:13:47.370Z,98585.26
2017-11-09T17:16:16.422Z,98580.24
2017-11-09T17:18:44.726Z,98577.73
2017-11-09T17:21:13.018Z,98571.88
2017-11-09T17:23:41.321Z,98573.72
2017-11-09T17:26:09.610Z,98580.16
2017-11-09T17:28:37.914Z,98585.84
2017-11-09T17:31:06.203Z,98587.49
2017-11-09T17:33:34.493Z,98587.76
2017-11-09T17:36:02.777Z,98583.09
2017-11-09T17:38:31.061Z,98598.70
2017-11-09T17:40:59.341Z,98604.66
2017-11-09T17:43:27.640Z,98618.98
2017-11-09T17:45:55.977Z,98607.03
2017-11-09T17:48:24.269Z,98605.09
2017-11-09T17:50:52.561Z,98609.09
2017-11-09T17:53:22.777Z,98608.97
2017-11-09T17:55:51.041Z,98602.89
2017-11-09T17:58:19.304Z,98610.20
2017-11-09T18:00:47.613Z,98611.50
2017-11-09T18:03:15.913Z,98614.37
2017-11-09T18:05:44.213Z,98616.98
2017-11-09T18:08:12.505Z,98617.16
2017-11-09T18:10:41.558Z,98624.85
2017-11-09T18:13:09.863Z,98627.73
2017-11-09T18:15:38.793Z,98630.40
2017-11-09T18:18:07.101Z,98619.06
2017-11-09T18:20:35.393Z,98606.63
2017-11-09T18:23:03.706Z,98606.72
2017-11-09T18:25:32.816Z,98606.90
2017-11-09T18:28:01.393Z,98610.98
2017-11-09T18:30:29.808Z,98608.06
2017-11-09T18:32:58.419Z,98600.05
2017-11-09T18:35:27.497Z,98602.70
2017-11-09T18:37:57.054Z,98611.58
2017-11-09T18:40:25.350Z,98618.34
2017-11-09T18:42:53.637Z,98620.63
2017-11-09T18:45:21.925Z,98615.78
2017-11-09T18:47:50.201Z,98618.02
2017-11-09T18:50:19.424Z,98621.06
2017-11-09T18:52:48.535Z,98628.29
2017-11-09T18:55:18.870Z,98626.59
2017-11-09T18:57:47.788Z,98632.28
2017-11-09T19:00:16.247Z,98635.88
2017-11-09T19:02:44.788Z,98640.66
2017-11-09T19:05:14.238Z,98641.09
2017-11-09T19:07:44.243Z,98658.88
2017-11-09T19:10:13.165Z,98666.34
2017-11-09T19:12:42.026Z,98666.16
2017-11-09T19:15:12.219Z,98676.19
2017-11-09T19:17:41.945Z,98683.33
2017-11-09T19:20:10.885Z,98673.28
2017-11-09T19:22:40.225Z,98669.27
2017-11-09T19:25:09.887Z,98681.70
2017-11-09T19:27:39.484Z,98672.53
2017-11-09T19:30:08.691Z,98674.30
2017-11-09T19:32:44.152Z,98677.44
2017-11-09T19:35:14.184Z,98677.20
2017-11-09T19:37:44.022Z,98676.06
2017-11-09T19:40:14.085Z,98672.81
2017-11-09T19:42:43.994Z,98661.44
2017-11-09T19:45:14.513Z,98653.52
2017-11-09T19:47:44.910Z,98651.62
2017-11-09T19:50:14.969Z,98650.80
2017-11-09T19:52:45.376Z,98640.92
2017-11-09T19:55:15.457Z,98637.68
2017-11-09T19:57:45.260Z,98641.18
2017-11-09T20:00:15.192Z,98647.57
2017-11-09T20:02:45.038Z,98646.61
2017-11-09T20:05:15.704Z,98640.17
2017-11-09T20:07:45.654Z,98640.66
2017-11-09T20:10:15.460Z,98639.70
2017-11-09T20:12:45.322Z,98634.38
2017-11-09T20:15:15.310Z,98642.03
2017-11-09T20:17:45.190Z,98638.64
2017-11-09T20:20:15.185Z,98634.34
2017-11-09T20:22:45.000Z,98636.83
2017-11-09T20:25:14.836Z,98625.66
2017-11-09T20:27:44.719Z,98621.96
2017-11-09T20:30:14.542Z,98625.80
2017-11-09T20:32:44.434Z,98624.47
2017-11-09T20:35:14.358Z,98609.38
2017-11-09T20:37:44.180Z,98604.83
2017-11-09T20:40:14.279Z,98611.63
2017-11-09T20:42:44.162Z,98611.62
2017-11-09T20:45:14.158Z,98597.70
2017-11-09T20:47:43.968Z,98600.63
2017-11-09T20:50:16.739Z,98610.24
2017-11-09T20:52:46.523Z,98620.19
2017-11-09T20:55:16.409Z,98621.03
2017-11-09T20:57:46.959Z,98625.34
2017-11-09T21:00:17.668Z,98629.06
2017-11-09T21:02:47.396Z,98624.45
2017-11-09T21:05:17.916Z,98614.23
2017-11-09T21:07:48.452Z,98604.72
2017-11-09T21:10:18.274Z,98604.34
2017-11-09T21:12:48.315Z,98603.17
2017-11-09T21:15:18.078Z,98593.18
2017-11-09T21:17:47.723Z,98595.20
2017-11-09T21:20:17.394Z,98601.99
2017-11-09T21:22:47.156Z,98608.41
2017-11-09T21:25:16.706Z,98601.45
2017-11-09T21:27:46.262Z,98593.18
2017-11-09T21:30:15.841Z,98590.47
2017-11-09T21:32:46.288Z,98592.23
2017-11-09T21:35:15.667Z,98597.80
2017-11-09T21:37:45.666Z,98586.31
2017-11-09T21:40:14.326Z,98581.17
2017-11-09T21:42:42.701Z,98565.98
2017-11-09T21:45:11.073Z,98561.36
2017-11-09T21:47:39.761Z,98576.28
2017-11-09T21:50:10.404Z,98578.26
2017-11-09T21:52:38.742Z,98575.22
2017-11-09T21:55:07.035Z,98578.63
2017-11-09T21:57:35.320Z,98580.88
2017-11-09T22:00:04.973Z,98578.88
2017-11-09T22:02:33.265Z,98571.02
2017-11-09T22:05:01.569Z,98573.40
2017-11-09T22:07:29.857Z,98570.73
2017-11-09T22:09:58.722Z,98570.59
2017-11-09T22:12:27.037Z,98565.50
2017-11-09T22:14:55.338Z,98578.50
2017-11-09T22:17:24.389Z,98583.62
2017-11-09T22:19:52.677Z,98573.11
2017-11-09T22:22:20.975Z,98570.79
2017-11-09T22:24:49.261Z,98561.20
2017-11-09T22:27:17.567Z,98560.77
2017-11-09T22:29:45.842Z,98570.22
2017-11-09T22:32:14.116Z,98564.76
2017-11-09T22:34:42.402Z,98555.98
2017-11-09T22:37:10.687Z,98553.28
2017-11-09T22:39:38.970Z,98546.91
2017-11-09T22:42:07.257Z,98540.84
2017-11-09T22:44:35.541Z,98538.71
2017-11-09T22:47:03.847Z,98534.91
2017-11-09T22:49:32.133Z,98532.30
2017-11-09T22:52:01.526Z,98527.25
2017-11-09T22:54:29.866Z,98528.24
2017-11-09T22:56:58.161Z,98523.16
2017-11-09T22:59:26.444Z,98510.30
2017-11-09T23:01:55.488Z,98507.28
2017-11-09T23:04:23.790Z,98508.97
2017-11-09T23:06:52.070Z,98503.44
2017-11-09T23:09:20.340Z,98503.45
2017-11-09T23:11:48.629Z,98514.92
2017-11-09T23:14:16.917Z,98518.21
2017-11-09T23:16:46.357Z,98524.00
2017-11-09T23:19:14.638Z,98533.73
2017-11-09T23:21:42.925Z,98531.43
2017-11-09T23:24:11.208Z,98527.17
2017-11-09T23:26:40.712Z,98525.25
2017-11-09T23:29:09.030Z,98522.86
2017-11-09T23:31:37.313Z,98509.64
2017-11-09T23:34:06.829Z,98514.52
2017-11-09T23:36:35.896Z,98501.72
2017-11-09T23:39:04.188Z,98483.78
2017-11-09T23:41:33.270Z,98477.80
2017-11-09T23:44:01.557Z,98481.45
2017-11-09T23:46:30.621Z,98479.28
2017-11-09T23:48:58.904Z,98469.56
2017-11-09T23:51:27.224Z,98463.72
2017-11-09T23:53:55.511Z,98467.69
2017-11-09T23:56:23.802Z,98468.22
2017-11-09T23:58:52.092Z,98458.81
